Latest Weather Observations for Norah Head

IDN60901

Issued at 8:01 pm EST Friday 29 July 2016 (issued every 10 minutes, with the page automatically refreshed every 10 minutes)

About weather observations | Map of Sydney area stations | Latest observations for Sydney area | Other Formats
Station Details ID: 061366 Name: NORAH HEAD AWS Lat: -33.28 Lon: 151.58 Height: 18.8 m
Data from the previous 72 hours. | See also: Recent months at Norah Head
Date/Time
EST
Temp
°C
App
Temp
°C
Dew
Point
°C
Rel
Hum
%
Delta-T
°C
Wind Press
QNH
hPa
Press
MSL
hPa
Rain since
9am
mm
Dir  Spd
km/h
Gust
km/h
Spd
kts
Gust
kts
29/08:00pm 12.4 9.7 7.5 72 2.4 WNW 11 17 6 9 1019.6 1019.6 0.0
29/07:30pm 12.4 10.4 6.9 69 2.6 WNW 7 13 4 7 1019.3 1019.3 0.0
29/07:00pm 12.9 10.5 7.1 68 2.8 WNW 9 13 5 7 1018.8 1018.8 0.0
29/06:30pm 13.3 11.4 7.7 69 2.8 NW 7 13 4 7 1018.6 1018.6 0.0
29/06:00pm 13.7 11.9 7.9 68 2.9 NNW 7 11 4 6 1018.4 1018.4 0.0
29/05:30pm 14.2 12.3 6.6 60 3.7 WNW 6 9 3 5 1018.0 1018.0 0.0
29/05:00pm 14.7 13.5 8.2 65 3.3 NNW 4 6 2 3 1017.9 1017.9 0.0
29/04:30pm 15.4 14.4 7.2 58 4.0 NNE 2 4 1 2 1017.9 1017.9 0.0
29/04:00pm 15.4 14.0 7.2 58 4.0 NNE 4 6 2 3 1017.8 1017.8 0.0
29/03:30pm 16.1 14.1 7.3 56 4.4 ENE 7 11 4 6 1017.9 1017.9 0.0
29/03:00pm 16.3 14.2 6.7 53 4.7 ENE 7 11 4 6 1018.1 1018.1 0.0
29/02:30pm 16.3 14.2 5.6 49 5.1 E 6 9 3 5 1018.2 1018.2 0.0
29/02:00pm 16.3 14.0 5.6 49 5.1 E 7 11 4 6 1018.5 1018.5 0.0
29/01:30pm 18.0 16.1 4.9 42 6.3 NE 4 6 2 3 1018.7 1018.7 0.0
29/01:00pm 17.2 15.5 4.2 42 6.1 WSW 2 9 1 5 1019.0 1019.0 0.0
29/12:30pm 17.6 15.0 4.2 41 6.3 NNW 7 11 4 6 1019.6 1019.6 0.0
29/12:00pm 17.5 14.6 4.8 43 6.0 NNW 9 17 5 9 1020.3 1020.3 0.0
29/11:30am 17.1 13.9 5.1 45 5.7 NNW 11 17 6 9 1021.0 1021.0 0.0
29/11:00am 16.4 13.4 6.0 50 5.0 NNW 11 17 6 9 1021.5 1021.5 0.0
29/10:30am 15.7 13.1 5.9 52 4.7 NNW 9 15 5 8 1022.2 1022.2 0.0
29/10:00am 14.5 12.4 5.8 56 4.1 NNW 6 11 3 6 1022.8 1022.8 0.0
29/09:30am 12.7 11.3 5.4 61 3.4 NW 2 7 1 4 1022.8 1022.8 0.0
29/09:00am 11.2 9.6 4.4 63 3.0 WNW 2 9 1 5 1023.0 1023.0 0.0
29/08:30am 10.5 9.0 5.1 69 2.5 SW 2 6 1 3 1022.9 1022.9 0.0
29/08:00am 9.1 6.6 3.7 69 2.3 W 6 13 3 7 1022.8 1022.8 0.0
29/07:30am 8.3 5.9 5.4 82 1.3 NW 7 15 4 8 1022.9 1022.9 0.0
29/07:00am 7.4 4.5 4.7 83 1.2 NW 9 15 5 8 1022.7 1022.7 0.0
29/06:30am 7.4 4.5 4.4 81 1.3 NW 9 15 5 8 1022.4 1022.4 0.0
29/06:00am 7.6 4.5 3.6 76 1.7 NW 9 13 5 7 1022.2 1022.2 0.0
29/05:30am 7.5 4.9 3.4 75 1.7 WNW 6 11 3 6 1022.2 1022.2 0.0
29/05:00am 7.9 5.2 3.8 75 1.8 NW 7 17 4 9 1022.1 1022.1 0.0
29/04:30am 8.0 4.9 3.8 75 1.8 NW 9 15 5 8 1021.9 1021.9 0.0
29/04:00am 7.7 5.1 3.4 74 1.8 NW 6 11 3 6 1021.9 1021.9 0.0
29/03:30am 7.9 4.8 3.4 73 1.9 WNW 9 13 5 7 1021.7 1021.7 0.0
29/03:00am 8.6 5.1 3.6 71 2.1 WNW 11 17 6 9 1021.8 1021.8 0.0
29/02:30am 8.7 5.3 3.9 72 2.1 WNW 11 19 6 10 1022.0 1022.0 0.0
29/02:00am 8.7 5.7 4.3 74 1.9 WNW 9 15 5 8 1022.2 1022.2 0.0
29/01:30am 8.6 6.0 4.4 75 1.8 WNW 7 15 4 8 1022.2 1022.2 0.0
29/01:00am 8.9 6.4 4.5 74 1.9 WNW 7 15 4 8 1022.4 1022.4 0.0
29/12:30am 9.4 6.6 5.0 74 2.0 WNW 9 15 5 8 1022.6 1022.6 0.0
29/12:00am 10.0 7.3 5.6 74 2.0 WNW 9 15 5 8 1022.6 1022.6 0.0
 
Date/Time
EST
Temp
°C
App
Temp
°C
Dew
Point
°C
Rel
Hum
%
Delta-T
°C
Wind Press
QNH
hPa
Press
MSL
hPa
Rain since
9am
mm
Dir  Spd
km/h
Gust
km/h
Spd
kts
Gust
kts
28/11:30pm 10.4 7.7 5.8 73 2.1 W 9 11 5 6 1022.8 1022.8 0.0
28/11:00pm 10.8 8.6 6.4 74 2.1 WNW 7 11 4 6 1022.8 1022.8 0.0
28/10:30pm 11.2 8.0 5.3 67 2.7 W 11 13 6 7 1022.5 1022.5 0.0
28/10:00pm 12.1 8.9 5.3 63 3.1 WSW 11 15 6 8 1022.5 1022.5 0.0
28/09:30pm 12.2 9.1 5.6 64 3.1 WSW 11 15 6 8 1022.4 1022.4 0.0
28/09:00pm 12.2 9.8 6.9 70 2.5 W 9 13 5 7 1022.3 1022.3 0.0
28/08:30pm 12.5 9.8 7.4 71 2.5 W 11 15 6 8 1022.2 1022.2 0.0
28/08:00pm 12.9 10.9 7.1 68 2.8 WNW 7 11 4 6 1021.9 1021.9 0.0
28/07:30pm 13.2 11.4 8.1 71 2.5 NW 7 11 4 6 1021.7 1021.7 0.0
28/07:00pm 13.7 11.6 8.1 69 2.8 NW 9 11 5 6 1021.5 1021.5 0.0
28/06:30pm 14.2 11.8 8.8 70 2.7 NNW 11 17 6 9 1021.4 1021.4 0.0
28/06:00pm 14.4 12.5 9.0 70 2.7 NW 9 13 5 7 1021.0 1021.0 0.0
28/05:30pm 14.5 12.5 7.3 62 3.5 NW 7 9 4 5 1020.9 1020.9 0.0
28/05:00pm 15.5 13.8 7.5 59 4.0 NW 6 7 3 4 1020.9 1020.9 0.0
28/04:30pm 16.6 15.1 7.0 53 4.8 NW 4 6 2 3 1020.8 1020.8 0.0
28/04:00pm 17.0 14.9 6.8 51 5.0 NW 7 11 4 6 1020.5 1020.5 0.0
28/03:30pm 17.5 15.9 6.4 48 5.5 NW 4 11 2 6 1020.7 1020.7 0.0
28/03:00pm 17.9 15.8 5.8 45 5.9 NW 6 13 3 7 1020.9 1020.9 0.0
28/02:30pm 18.6 15.7 6.4 45 6.1 NW 11 19 6 10 1021.1 1021.1 0.0
28/02:00pm 17.9 13.7 5.5 44 6.0 NNW 17 20 9 11 1021.2 1021.2 0.0
28/01:30pm 18.6 16.4 6.1 44 6.2 NNW 7 15 4 8 1021.6 1021.6 0.0
28/01:00pm 16.9 15.2 6.1 49 5.2 NE 4 6 2 3 1022.2 1022.2 0.0
28/12:30pm 17.1 15.4 5.7 47 5.5 WNW 4 13 2 7 1022.6 1022.6 0.0
28/12:00pm 16.1 14.2 5.1 48 5.2 WSW 4 9 2 5 1023.1 1023.1 0.0
28/11:30am 15.8 14.4 5.4 50 5.0 W 2 7 1 4 1023.6 1023.6 0.0
28/11:00am 15.4 13.6 5.6 52 4.7 W 4 9 2 5 1024.2 1024.2 0.0
28/10:30am 14.9 12.7 5.4 53 4.5 WNW 6 11 3 6 1024.4 1024.4 0.0
28/10:00am 14.3 12.0 5.9 57 4.0 W 7 15 4 8 1024.6 1024.6 0.0
28/09:30am 13.7 11.4 5.8 59 3.7 NW 7 15 4 8 1024.5 1024.5 0.0
28/09:00am 12.8 10.5 5.5 61 3.4 WNW 7 17 4 9 1024.3 1024.3 0.0
28/08:30am 11.6 9.3 5.5 66 2.8 WNW 7 17 4 9 1024.0 1024.0 0.0
28/08:00am 10.9 8.7 5.4 69 2.5 WNW 6 13 3 7 1023.7 1023.7 0.0
28/07:30am 9.8 7.3 4.8 71 2.2 WNW 7 11 4 6 1023.2 1023.2 0.0
28/07:00am 8.7 6.6 4.1 73 2.0 WNW 4 9 2 5 1023.0 1023.0 0.0
28/06:30am 8.9 6.9 4.5 74 1.9 WNW 4 9 2 5 1022.7 1022.7 0.0
28/06:00am 8.9 6.5 4.3 73 2.0 NW 6 9 3 5 1022.4 1022.4 0.0
28/05:30am 8.8 6.3 4.0 72 2.1 WNW 6 9 3 5 1022.0 1022.0 0.0
28/05:00am 9.0 6.4 4.0 71 2.2 WNW 7 11 4 6 1021.4 1021.4 0.0
28/04:30am 9.3 6.9 4.1 70 2.3 NW 6 7 3 4 1021.1 1021.1 0.0
28/04:00am 9.3 6.8 3.9 69 2.4 WNW 6 13 3 7 1020.9 1020.9 0.0
28/03:30am 9.3 6.6 3.7 68 2.4 NW 7 13 4 7 1021.0 1021.0 0.0
28/03:00am 9.7 7.3 4.3 69 2.4 NW 6 13 3 7 1021.1 1021.1 0.0
28/02:30am 9.7 7.0 3.9 67 2.5 WNW 7 11 4 6 1021.3 1021.3 0.0
28/02:00am 9.5 7.0 3.7 67 2.5 WNW 6 9 3 5 1021.6 1021.6 0.0
28/01:30am 10.1 7.4 3.8 65 2.8 WNW 7 13 4 7 1021.4 1021.4 0.0
28/01:00am 10.2 7.6 4.1 66 2.7 WNW 7 13 4 7 1021.2 1021.2 0.0
28/12:30am 10.5 8.1 4.4 66 2.7 WNW 6 9 3 5 1021.0 1021.0 0.0
28/12:00am 10.6 8.0 4.3 65 2.8 WNW 7 13 4 7 1020.6 1020.6 0.0
 
Date/Time
EST
Temp
°C
App
Temp
°C
Dew
Point
°C
Rel
Hum
%
Delta-T
°C
Wind Press
QNH
hPa
Press
MSL
hPa
Rain since
9am
mm
Dir  Spd
km/h
Gust
km/h
Spd
kts
Gust
kts
27/11:30pm 10.9 8.4 4.6 65 2.8 WNW 7 13 4 7 1020.4 1020.4 0.0
27/11:00pm 10.9 8.2 3.7 61 3.2 WNW 7 11 4 6 1020.3 1020.3 0.0
27/10:30pm 11.3 9.3 4.3 62 3.1 NW 4 6 2 3 1020.3 1020.3 0.0
27/10:00pm 11.7 9.0 3.7 58 3.5 WNW 7 9 4 5 1020.1 1020.1 0.0
27/09:30pm 12.2 9.6 4.2 58 3.6 WNW 7 15 4 8 1020.1 1020.1 0.0
27/09:00pm 12.7 10.1 4.2 56 3.8 WNW 7 17 4 9 1019.8 1019.8 0.0
27/08:30pm 13.3 9.6 4.2 54 4.1 W 13 19 7 10 1019.5 1019.5 0.0
27/08:00pm 13.1 10.5 4.3 55 4.0 W 7 13 4 7 1019.1 1019.1 0.0
27/07:30pm 13.3 10.8 4.5 55 4.0 W 7 11 4 6 1018.7 1018.7 0.0
27/07:00pm 13.3 11.0 4.7 56 4.0 WNW 6 13 3 7 1018.2 1018.2 0.0
27/06:30pm 13.7 11.4 4.6 54 4.2 WNW 6 9 3 5 1017.4 1017.4 0.0
27/06:00pm 14.3 12.0 4.6 52 4.5 WNW 6 7 3 4 1016.8 1016.8 0.0
27/05:30pm 14.8 12.3 4.5 50 4.8 W 7 11 4 6 1016.3 1016.3 0.0
27/05:00pm 15.5 12.9 4.3 47 5.2 W 7 17 4 9 1015.6 1015.6 0.0
27/04:30pm 16.5 13.0 3.6 42 6.0 WNW 11 24 6 13 1015.0 1015.0 0.0
27/04:00pm 17.1 14.2 4.4 43 6.0 W 9 20 5 11 1014.6 1014.6 0.0
27/03:30pm 17.5 12.5 3.4 39 6.5 W 19 33 10 18 1014.3 1014.3 0.0
27/03:00pm 18.1 14.7 3.9 39 6.7 W 11 28 6 15 1014.1 1014.1 0.0
27/02:30pm 17.5 12.8 3.0 38 6.7 W 17 33 9 18 1013.7 1013.7 0.0
27/02:00pm 18.6 14.3 5.1 41 6.5 WNW 17 33 9 18 1013.3 1013.3 0.0
27/01:30pm 19.3 15.9 6.1 42 6.5 WNW 13 30 7 16 1013.2 1013.2 0.0
27/01:00pm 18.7 15.3 5.9 43 6.3 W 13 28 7 15 1012.9 1012.9 0.0
27/12:30pm 18.2 13.9 5.4 43 6.2 WNW 17 32 9 17 1012.6 1012.6 0.0
27/12:00pm 18.4 14.8 6.6 46 5.9 WNW 15 33 8 18 1012.6 1012.6 0.0
27/11:30am 18.2 15.0 7.0 48 5.6 WNW 13 26 7 14 1012.9 1012.9 0.0
27/11:00am 17.8 15.1 7.5 51 5.2 WNW 11 26 6 14 1013.3 1013.3 0.0
27/10:30am 17.0 13.9 7.1 52 4.9 WNW 13 33 7 18 1013.7 1013.7 0.0
27/10:00am 16.3 12.8 7.0 54 4.6 NW 15 32 8 17 1013.2 1013.2 0.0
27/09:30am 15.8 12.3 7.1 56 4.3 NW 15 30 8 16 1013.2 1013.2 0.0
27/09:00am 15.0 11.4 6.8 58 4.0 NW 15 41 8 22 1013.1 1013.1 0.0
27/08:30am 14.7 10.8 7.0 60 3.8 NW 17 32 9 17 1013.2 1013.2 0.0
27/08:00am 13.9 10.2 6.5 61 3.6 NW 15 28 8 15 1013.3 1013.3 0.0
27/07:30am 12.7 9.9 7.0 68 2.7 NNW 11 19 6 10 1013.5 1013.5 0.0
27/07:00am 11.4 9.8 6.3 71 2.4 NW 4 9 2 5 1013.5 1013.5 0.0
27/06:30am 11.5 9.4 6.6 72 2.3 NW 7 15 4 8 1013.5 1013.5 0.0
27/06:00am 11.7 8.8 6.6 71 2.4 NNW 11 19 6 10 1013.1 1013.1 0.0
27/05:30am 12.3 10.4 7.4 72 2.4 WNW 7 17 4 9 1013.2 1013.2 0.0
27/05:00am 12.3 8.1 7.6 73 2.3 NNW 19 28 10 15 1012.7 1012.7 0.0
27/04:30am 12.9 9.2 8.0 72 2.4 NNW 17 22 9 12 1012.9 1012.9 0.0
27/04:00am 13.3 9.0 8.0 70 2.6 N 20 24 11 13 1013.0 1013.0 0.0
27/03:30am 12.8 11.1 7.5 70 2.6 NW 6 11 3 6 1013.7 1013.7 0.0
27/03:00am 12.7 11.1 7.8 72 2.4 NW 6 9 3 5 1014.1 1014.1 0.0
27/02:30am 12.5 10.6 7.4 71 2.5 NW 7 11 4 6 1014.2 1014.2 0.0
27/02:00am 12.5 9.8 7.4 71 2.5 NNW 11 15 6 8 1014.3 1014.3 0.0
27/01:30am 12.9 9.9 7.8 71 2.5 NNW 13 17 7 9 1014.4 1014.4 0.0
27/01:00am 13.4 7.9 7.6 68 2.8 N 26 30 14 16 1014.4 1014.4 0.0
27/12:30am 13.3 9.5 7.7 69 2.8 N 17 22 9 12 1014.6 1014.6 0.0
27/12:00am 13.6 10.7 6.7 63 3.3 NNW 11 17 6 9 1015.1 1015.1 0.0
 
Date/Time
EST
Temp
°C
App
Temp
°C
Dew
Point
°C
Rel
Hum
%
Delta-T
°C
Wind Press
QNH
hPa
Press
MSL
hPa
Rain since
9am
mm
Dir  Spd
km/h
Gust
km/h
Spd
kts
Gust
kts
26/11:30pm 13.7 11.5 6.3 61 3.5 NW 7 15 4 8 1015.1 1015.1 0.0
26/11:00pm 14.1 12.1 6.2 59 3.8 NW 6 11 3 6 1015.4 1015.4 0.0
26/10:30pm 14.4 11.5 6.5 59 3.8 NNW 11 15 6 8 1015.2 1015.2 0.0
26/10:00pm 13.8 11.7 5.9 59 3.7 NW 6 9 3 5 1015.4 1015.4 0.0
26/09:30pm 14.0 11.6 5.4 56 4.0 NNW 7 13 4 7 1015.5 1015.5 0.0
26/09:00pm 13.9 11.7 5.3 56 4.0 W 6 17 3 9 1015.5 1015.5 0.0
26/08:30pm 13.7 11.1 6.1 60 3.6 NW 9 17 5 9 1015.1 1015.1 0.0

Latest Capital City Observations: Canberra | Sydney | Melbourne | Brisbane | Adelaide | Perth | Hobart | Darwin

Other Formats:

Comma delimited format used in spreadsheet applications
http://www.bom.gov.au/fwo/IDN60901/IDN60901.95770.axf

JavaScript Object Notation format (JSON) in row-major order
http://www.bom.gov.au/fwo/IDN60901/IDN60901.95770.json